createdAt,value
2022-08-09T00:00:25.288Z,16.05
2022-08-09T00:01:25.359Z,16.08
2022-08-09T00:02:25.810Z,16.04
2022-08-09T00:04:08.535Z,16.00
2022-08-09T00:04:34.826Z,15.95
2022-08-09T00:06:19.204Z,15.94
2022-08-09T00:06:26.919Z,15.91
2022-08-09T00:07:25.203Z,15.88
2022-08-09T00:08:31.899Z,15.83
2022-08-09T00:09:25.197Z,15.76
2022-08-09T00:10:25.172Z,15.70
2022-08-09T00:11:55.069Z,15.67
2022-08-09T00:12:25.167Z,15.61
2022-08-09T00:13:25.145Z,15.55
2022-08-09T00:14:37.777Z,15.51
2022-08-09T00:15:35.209Z,15.46
2022-08-09T00:16:26.223Z,15.40
2022-08-09T00:18:04.488Z,15.37
2022-08-09T00:18:25.096Z,15.29
2022-08-09T00:19:25.072Z,15.28
2022-08-09T00:20:25.070Z,15.21
2022-08-09T00:21:25.073Z,15.18
2022-08-09T00:22:25.048Z,15.19
2022-08-09T00:23:58.117Z,15.15
2022-08-09T00:24:25.033Z,15.14
2022-08-09T00:25:32.865Z,15.10
2022-08-09T00:26:29.819Z,15.09
2022-08-09T00:27:25.004Z,15.04
2022-08-09T00:28:26.454Z,15.00
2022-08-09T00:29:39.676Z,14.97
2022-08-09T00:30:27.036Z,14.92
2022-08-09T00:31:57.606Z,14.85
2022-08-09T00:32:25.664Z,14.82
2022-08-09T00:33:32.721Z,14.79
2022-08-09T00:34:24.933Z,14.70
2022-08-09T00:35:24.909Z,14.66
2022-08-09T00:36:27.244Z,14.63
2022-08-09T00:37:24.913Z,14.62
2022-08-09T00:38:24.902Z,14.58
2022-08-09T00:40:09.553Z,14.53
2022-08-09T00:40:30.353Z,14.50
2022-08-09T00:44:16.792Z,14.47
2022-08-09T00:44:29.709Z,14.47
2022-08-09T00:44:37.448Z,14.37
2022-08-09T00:45:35.240Z,14.36
2022-08-09T00:46:55.536Z,14.41
2022-08-09T00:47:39.578Z,14.43
2022-08-09T00:48:35.026Z,14.40
2022-08-09T00:49:36.880Z,14.41
2022-08-09T00:50:37.607Z,14.44
2022-08-09T00:51:54.375Z,14.45
2022-08-09T00:52:35.426Z,14.45
2022-08-09T00:53:36.280Z,14.45
2022-08-09T00:54:36.520Z,14.43
2022-08-09T00:56:04.193Z,14.41
2022-08-09T00:56:34.943Z,14.41
2022-08-09T00:57:35.819Z,14.37
2022-08-09T00:58:34.913Z,14.35
2022-08-09T00:59:41.527Z,14.33
2022-08-09T01:00:35.271Z,14.30
2022-08-09T01:01:44.634Z,14.30
2022-08-09T01:02:34.924Z,14.28
2022-08-09T01:03:40.612Z,14.28
2022-08-09T01:04:34.856Z,14.28
2022-08-09T01:05:53.242Z,14.25
2022-08-09T01:06:53.388Z,14.23
2022-08-09T01:07:38.195Z,14.22
2022-08-09T01:08:34.865Z,14.22
2022-08-09T01:09:35.824Z,14.23
2022-08-09T01:10:34.787Z,14.22
2022-08-09T01:11:34.785Z,14.25
2022-08-09T01:12:34.782Z,14.22
2022-08-09T01:13:53.132Z,14.20
2022-08-09T01:14:34.758Z,14.18
2022-08-09T01:15:40.811Z,14.20
2022-08-09T01:16:35.087Z,14.15
2022-08-09T01:17:34.720Z,14.14
2022-08-09T01:18:34.704Z,14.11
2022-08-09T01:19:40.000Z,14.08
2022-08-09T01:20:34.694Z,14.04
2022-08-09T01:21:44.595Z,14.04
2022-08-09T01:22:34.842Z,14.03
2022-08-09T01:24:03.677Z,14.00
2022-08-09T01:24:34.650Z,13.96
2022-08-09T01:25:41.480Z,13.95
2022-08-09T01:26:34.633Z,13.95
2022-08-09T01:27:34.614Z,13.96
2022-08-09T01:28:34.594Z,13.96
2022-08-09T01:29:41.103Z,13.99
2022-08-09T01:30:51.294Z,14.00
2022-08-09T01:32:32.094Z,14.00
2022-08-09T01:32:38.927Z,14.00
2022-08-09T01:33:34.553Z,13.97
2022-08-09T01:34:34.548Z,13.95
2022-08-09T01:35:38.442Z,13.95
2022-08-09T01:36:34.536Z,13.93
2022-08-09T01:38:05.853Z,13.92
2022-08-09T01:38:34.499Z,13.92
2022-08-09T01:39:35.783Z,13.92
2022-08-09T01:40:34.473Z,13.89
2022-08-09T01:41:34.474Z,13.87
2022-08-09T01:42:34.461Z,13.83
2022-08-09T01:43:50.126Z,13.81
2022-08-09T01:44:34.439Z,13.81
2022-08-09T01:45:35.568Z,13.79
2022-08-09T01:46:34.426Z,13.75
2022-08-09T01:47:34.414Z,13.74
2022-08-09T01:48:34.397Z,13.71
2022-08-09T01:49:38.740Z,13.65
2022-08-09T01:50:36.961Z,13.60
2022-08-09T01:51:34.377Z,13.56
2022-08-09T01:52:34.354Z,13.52
2022-08-09T01:53:41.112Z,13.44
2022-08-09T01:54:34.333Z,13.39
2022-08-09T01:55:34.356Z,13.37
2022-08-09T01:56:34.314Z,13.37
2022-08-09T01:57:40.151Z,13.31
2022-08-09T01:58:34.280Z,13.30
2022-08-09T01:59:50.928Z,13.28
2022-08-09T02:00:35.493Z,13.19
2022-08-09T02:01:59.750Z,13.16
2022-08-09T02:02:34.485Z,13.15
2022-08-09T02:03:34.247Z,13.13
2022-08-09T02:04:34.227Z,13.12
2022-08-09T02:05:38.186Z,13.12
2022-08-09T02:06:34.201Z,13.12
2022-08-09T02:08:40.978Z,13.13
2022-08-09T02:09:02.804Z,13.15
2022-08-09T02:09:42.236Z,13.15
2022-08-09T02:10:34.488Z,13.13
2022-08-09T02:11:42.608Z,13.15
2022-08-09T02:12:34.290Z,13.20
2022-08-09T02:13:40.436Z,13.19
2022-08-09T02:14:34.124Z,13.19
2022-08-09T02:15:36.357Z,13.20
2022-08-09T02:16:53.307Z,13.20
2022-08-09T02:18:01.067Z,13.15
2022-08-09T02:18:34.081Z,13.11
2022-08-09T02:19:38.920Z,13.04
2022-08-09T02:20:34.360Z,13.03
2022-08-09T02:21:34.189Z,13.01
2022-08-09T02:22:38.519Z,13.01
2022-08-09T02:23:39.765Z,13.01
2022-08-09T02:24:34.024Z,13.04
2022-08-09T02:25:42.459Z,13.09
2022-08-09T02:26:33.996Z,13.12
2022-08-09T02:27:57.952Z,13.13
2022-08-09T02:28:34.043Z,13.15
2022-08-09T02:29:33.966Z,13.15
2022-08-09T02:30:34.139Z,13.12
2022-08-09T02:31:35.490Z,13.11
2022-08-09T02:32:34.181Z,13.08
2022-08-09T02:33:38.344Z,13.05
2022-08-09T02:34:41.626Z,13.04
2022-08-09T02:36:01.533Z,13.03
2022-08-09T02:36:33.900Z,13.00
2022-08-09T02:37:36.683Z,12.95
2022-08-09T02:38:34.886Z,12.93
2022-08-09T02:39:41.811Z,12.87
2022-08-09T02:40:33.892Z,12.87
2022-08-09T02:41:33.840Z,12.86
2022-08-09T02:42:34.069Z,12.86
2022-08-09T02:43:51.796Z,12.83
2022-08-09T02:44:33.809Z,12.86
2022-08-09T02:45:33.795Z,12.95
2022-08-09T02:46:33.776Z,13.01
2022-08-09T02:47:57.793Z,13.01
2022-08-09T02:48:33.786Z,13.03
2022-08-09T02:49:38.999Z,13.05
2022-08-09T02:50:33.764Z,13.04
2022-08-09T02:51:40.062Z,13.09
2022-08-09T02:52:34.542Z,13.08
2022-08-09T02:53:34.297Z,13.04
2022-08-09T02:54:33.721Z,13.01
2022-08-09T02:55:57.768Z,13.03
2022-08-09T02:56:33.690Z,13.03
2022-08-09T02:57:40.564Z,13.03
2022-08-09T02:58:36.764Z,13.00
2022-08-09T02:59:36.498Z,13.00
2022-08-09T03:00:33.710Z,13.01
2022-08-09T03:01:58.520Z,13.04
2022-08-09T03:02:33.908Z,13.12
2022-08-09T03:03:37.303Z,13.13
2022-08-09T03:04:33.622Z,13.13
2022-08-09T03:05:34.579Z,13.16
2022-08-09T03:06:33.588Z,13.18
2022-08-09T03:07:33.574Z,13.22
2022-08-09T03:08:33.559Z,13.23
2022-08-09T03:09:33.887Z,13.25
2022-08-09T03:10:33.546Z,13.27
2022-08-09T03:12:10.389Z,13.28
2022-08-09T03:12:33.761Z,13.38
2022-08-09T03:13:43.830Z,13.44
2022-08-09T03:14:33.518Z,13.46
2022-08-09T03:15:40.505Z,13.46
2022-08-09T03:16:33.538Z,13.42
2022-08-09T03:17:33.515Z,13.47
2022-08-09T03:18:33.467Z,13.50
2022-08-09T03:19:58.908Z,13.56
2022-08-09T03:20:33.438Z,13.60
2022-08-09T03:21:36.523Z,13.63
2022-08-09T03:22:33.613Z,13.63
2022-08-09T03:23:33.374Z,13.62
2022-08-09T03:24:51.762Z,13.68
2022-08-09T03:25:58.352Z,13.68
2022-08-09T03:26:33.348Z,13.72
2022-08-09T03:27:45.406Z,13.75
2022-08-09T03:28:33.370Z,13.78
2022-08-09T03:29:35.760Z,13.83
2022-08-09T03:30:36.593Z,13.87
2022-08-09T03:31:33.266Z,13.93
2022-08-09T03:32:33.422Z,14.03
2022-08-09T03:33:54.128Z,14.11
2022-08-09T03:34:33.244Z,14.25
2022-08-09T03:36:11.521Z,14.30
2022-08-09T03:36:33.278Z,14.35
2022-08-09T03:37:56.205Z,14.40
2022-08-09T03:38:33.217Z,14.45
2022-08-09T03:39:38.031Z,14.48
2022-08-09T03:40:33.170Z,14.54
2022-08-09T03:41:46.049Z,14.60
2022-08-09T03:42:33.341Z,14.66
2022-08-09T03:43:33.286Z,14.68
2022-08-09T03:44:33.133Z,14.69
2022-08-09T03:46:05.254Z,14.70
2022-08-09T03:46:33.130Z,14.72
2022-08-09T03:47:36.690Z,14.72
2022-08-09T03:48:33.118Z,14.69
2022-08-09T03:49:35.828Z,14.69
2022-08-09T03:50:33.071Z,14.69
2022-08-09T03:51:56.197Z,14.68
2022-08-09T03:52:33.313Z,14.69
2022-08-09T03:53:37.697Z,14.73
2022-08-09T03:54:34.623Z,14.72
2022-08-09T03:55:36.168Z,14.78
2022-08-09T03:56:33.034Z,14.77
2022-08-09T03:57:33.001Z,14.79
2022-08-09T03:58:32.997Z,14.78
2022-08-09T03:59:53.777Z,14.78
2022-08-09T04:00:32.990Z,14.78
2022-08-09T04:01:32.956Z,14.82
2022-08-09T04:02:33.741Z,14.81
2022-08-09T04:03:35.413Z,14.81
2022-08-09T04:04:36.295Z,14.82
2022-08-09T04:05:32.929Z,14.82
2022-08-09T04:06:32.911Z,14.81
2022-08-09T04:07:47.789Z,14.79
2022-08-09T04:08:33.172Z,14.81
2022-08-09T04:09:47.420Z,14.79
2022-08-09T04:10:32.872Z,14.79
2022-08-09T04:11:32.862Z,14.77
2022-08-09T04:12:32.838Z,14.77
2022-08-09T04:14:37.669Z,14.73
2022-08-09T04:15:11.622Z,14.70
2022-08-09T04:16:17.376Z,14.70
2022-08-09T04:16:32.811Z,14.70
2022-08-09T04:17:32.795Z,14.66
2022-08-09T04:18:32.786Z,14.69
2022-08-09T04:19:51.182Z,14.70
2022-08-09T04:20:32.818Z,14.78
2022-08-09T04:21:36.346Z,14.81
2022-08-09T04:22:33.068Z,14.82
2022-08-09T04:23:32.733Z,14.84
2022-08-09T04:24:33.274Z,14.86
2022-08-09T04:25:32.758Z,14.86
2022-08-09T04:26:37.829Z,14.86
2022-08-09T04:27:32.890Z,14.89
2022-08-09T04:28:36.266Z,14.88
2022-08-09T04:29:32.673Z,14.91
2022-08-09T04:30:32.676Z,14.89
2022-08-09T04:31:37.589Z,14.91
2022-08-09T04:32:34.145Z,14.91
2022-08-09T04:33:32.640Z,14.89
2022-08-09T04:34:32.625Z,14.91
2022-08-09T04:35:33.058Z,14.89
2022-08-09T04:36:32.585Z,14.88
2022-08-09T04:37:45.239Z,14.86
2022-08-09T04:38:32.580Z,14.85
2022-08-09T04:39:32.580Z,14.84
2022-08-09T04:40:36.496Z,14.85
2022-08-09T04:41:33.789Z,14.86
2022-08-09T04:42:32.891Z,14.86
2022-08-09T04:43:35.750Z,14.86
2022-08-09T04:44:32.510Z,14.88
2022-08-09T04:45:36.106Z,14.89
2022-08-09T04:46:57.544Z,14.89
2022-08-09T04:47:45.071Z,14.88
2022-08-09T04:48:33.170Z,14.88
2022-08-09T04:49:52.135Z,14.89
2022-08-09T04:50:37.772Z,14.89
2022-08-09T04:51:33.350Z,14.89
2022-08-09T04:52:32.646Z,14.89
2022-08-09T04:53:32.419Z,14.88
2022-08-09T04:54:32.436Z,14.88
2022-08-09T04:55:32.410Z,14.88
2022-08-09T04:56:32.411Z,14.86
2022-08-09T04:57:58.444Z,14.88
2022-08-09T04:58:33.835Z,14.88
2022-08-09T04:59:32.347Z,14.88
2022-08-09T05:00:34.359Z,14.86
2022-08-09T05:01:32.636Z,14.88
2022-08-09T05:02:32.583Z,14.88
2022-08-09T05:03:43.278Z,14.88
2022-08-09T05:04:32.397Z,14.91
2022-08-09T05:05:52.106Z,14.89
2022-08-09T05:06:35.703Z,14.92
2022-08-09T05:07:32.336Z,14.97
2022-08-09T05:08:32.261Z,14.96
2022-08-09T05:09:42.183Z,15.02
2022-08-09T05:10:32.261Z,15.03
2022-08-09T05:11:35.938Z,15.04
2022-08-09T05:12:33.057Z,15.03
2022-08-09T05:13:33.206Z,15.04
2022-08-09T05:14:32.205Z,15.07
2022-08-09T05:15:43.055Z,15.09
2022-08-09T05:16:32.219Z,15.11
2022-08-09T05:18:39.692Z,15.14
2022-08-09T05:18:57.369Z,15.15
2022-08-09T05:19:44.951Z,15.18
2022-08-09T05:20:32.149Z,15.19
2022-08-09T05:21:46.737Z,15.21
2022-08-09T05:22:35.876Z,15.24
2022-08-09T05:24:01.337Z,15.27
2022-08-09T05:24:32.113Z,15.28
2022-08-09T05:25:32.548Z,15.29
2022-08-09T05:26:45.442Z,15.31
2022-08-09T05:27:32.083Z,15.33
2022-08-09T05:28:32.061Z,15.36
2022-08-09T05:29:35.642Z,15.36
2022-08-09T05:30:32.049Z,15.39
2022-08-09T05:31:44.259Z,15.40
2022-08-09T05:32:32.275Z,15.42
2022-08-09T05:33:33.141Z,15.43
2022-08-09T05:34:32.634Z,15.46
2022-08-09T05:35:32.028Z,15.49
2022-08-09T05:36:31.979Z,15.52
2022-08-09T05:37:31.967Z,15.54
2022-08-09T05:38:31.966Z,15.57
2022-08-09T05:39:36.067Z,15.58
2022-08-09T05:40:31.979Z,15.62
2022-08-09T05:41:31.949Z,15.65
2022-08-09T05:42:32.077Z,15.65
2022-08-09T05:43:32.148Z,15.68
2022-08-09T05:44:32.679Z,15.72
2022-08-09T05:45:52.480Z,15.76
2022-08-09T05:46:31.891Z,15.77
2022-08-09T05:47:33.423Z,15.82
2022-08-09T05:48:33.216Z,15.86
2022-08-09T05:50:23.696Z,15.90
2022-08-09T05:50:51.388Z,15.92
2022-08-09T05:51:43.141Z,15.97
2022-08-09T05:52:32.015Z,16.00
2022-08-09T05:53:33.509Z,16.00
2022-08-09T05:54:31.797Z,16.02
2022-08-09T05:55:31.762Z,16.04
2022-08-09T05:56:31.781Z,16.10
2022-08-09T05:57:50.750Z,16.12
2022-08-09T05:58:31.753Z,16.16
2022-08-09T05:59:31.720Z,16.17
2022-08-09T06:00:32.740Z,16.24
2022-08-09T06:01:33.521Z,16.29
2022-08-09T06:02:32.366Z,16.31
2022-08-09T06:03:34.886Z,16.33
2022-08-09T06:04:35.026Z,16.36
2022-08-09T06:05:57.344Z,16.38
2022-08-09T06:06:31.675Z,16.41
2022-08-09T06:07:31.637Z,16.42
2022-08-09T06:08:31.634Z,16.47
2022-08-09T06:09:55.030Z,16.50
2022-08-09T06:10:31.660Z,16.54
2022-08-09T06:11:41.157Z,16.58
2022-08-09T06:12:31.607Z,16.65
2022-08-09T06:13:33.761Z,16.69
2022-08-09T06:14:31.588Z,16.71
2022-08-09T06:15:31.559Z,16.75
2022-08-09T06:16:31.598Z,16.78
2022-08-09T06:17:39.860Z,16.81
2022-08-09T06:18:31.546Z,16.84
2022-08-09T06:19:31.514Z,16.87
2022-08-09T06:20:31.516Z,16.91
2022-08-09T06:21:31.512Z,16.97
2022-08-09T06:22:31.609Z,17.01
2022-08-09T06:23:55.093Z,17.04
2022-08-09T06:24:31.477Z,17.11
2022-08-09T06:25:31.451Z,17.12
2022-08-09T06:26:31.643Z,17.16
2022-08-09T06:27:41.210Z,17.24
2022-08-09T06:28:32.007Z,17.26
2022-08-09T06:29:31.433Z,17.31
2022-08-09T06:30:31.422Z,17.33
2022-08-09T06:31:40.599Z,17.39
2022-08-09T06:32:58.837Z,17.42
2022-08-09T06:33:41.088Z,17.46
2022-08-09T06:34:31.375Z,17.51
2022-08-09T06:35:56.605Z,17.54
2022-08-09T06:36:31.348Z,17.59
2022-08-09T06:37:31.341Z,17.64
2022-08-09T06:38:32.212Z,17.71
2022-08-09T06:39:38.893Z,17.76
2022-08-09T06:40:31.587Z,17.80
2022-08-09T06:41:55.823Z,17.85
2022-08-09T06:42:33.633Z,17.92
2022-08-09T06:43:34.387Z,18.00
2022-08-09T06:44:31.258Z,18.04
2022-08-09T06:46:07.784Z,18.11
2022-08-09T06:46:39.675Z,18.20
2022-08-09T06:47:39.467Z,18.25
2022-08-09T06:48:31.383Z,18.34
2022-08-09T06:50:12.150Z,18.41
2022-08-09T06:50:31.980Z,18.45
2022-08-09T06:51:31.177Z,18.50
2022-08-09T06:52:31.383Z,18.62
2022-08-09T06:53:33.265Z,18.71
2022-08-09T06:54:31.172Z,18.81
2022-08-09T06:55:31.135Z,18.93
2022-08-09T06:56:31.675Z,19.07
2022-08-09T06:58:01.116Z,19.14
2022-08-09T07:00:47.466Z,19.12
2022-08-09T07:01:01.460Z,19.12
2022-08-09T07:01:06.428Z,19.24
2022-08-09T07:02:06.454Z,19.30
2022-08-09T07:03:06.403Z,19.37
2022-08-09T07:04:06.384Z,19.48
2022-08-09T07:05:06.377Z,19.58
2022-08-09T07:06:06.361Z,19.63
2022-08-09T07:07:06.359Z,19.69
2022-08-09T07:08:06.341Z,19.77
2022-08-09T07:09:06.346Z,19.86
2022-08-09T07:10:18.097Z,19.91
2022-08-09T07:11:06.908Z,20.00
2022-08-09T07:12:06.304Z,20.04
2022-08-09T07:13:27.731Z,20.10
2022-08-09T07:14:06.485Z,20.21
2022-08-09T07:16:40.719Z,20.37
2022-08-09T07:16:55.349Z,20.55
2022-08-09T07:17:08.198Z,20.67
2022-08-09T07:18:06.250Z,20.80
2022-08-09T07:19:06.250Z,20.72
2022-08-09T07:20:06.223Z,20.63
2022-08-09T07:21:07.795Z,20.58
2022-08-09T07:22:06.214Z,20.80
2022-08-09T07:23:18.241Z,20.92
2022-08-09T07:24:06.194Z,21.00
2022-08-09T07:25:09.658Z,21.11
2022-08-09T07:26:06.156Z,21.27
2022-08-09T07:27:21.051Z,21.40
2022-08-09T07:28:06.162Z,21.60
2022-08-09T07:29:12.133Z,21.66
2022-08-09T07:30:06.123Z,21.62
2022-08-09T07:31:06.108Z,21.57
2022-08-09T07:32:06.107Z,21.57
2022-08-09T07:33:12.354Z,21.67
2022-08-09T07:34:06.121Z,21.57
2022-08-09T07:35:08.081Z,21.66
2022-08-09T07:36:06.048Z,21.75
2022-08-09T07:37:06.055Z,21.82
2022-08-09T07:38:06.032Z,21.98
2022-08-09T07:39:06.118Z,22.15
2022-08-09T07:40:06.105Z,22.18
2022-08-09T07:41:11.509Z,22.20
2022-08-09T07:42:06.350Z,22.13
2022-08-09T07:43:14.815Z,22.17
2022-08-09T07:44:05.980Z,22.30
2022-08-09T07:45:06.450Z,22.39
2022-08-09T07:46:05.947Z,22.51
2022-08-09T07:47:05.959Z,22.66
2022-08-09T07:48:05.954Z,22.76
2022-08-09T07:49:05.936Z,22.70
2022-08-09T07:50:08.596Z,22.70
2022-08-09T07:52:03.338Z,22.81
2022-08-09T07:52:18.079Z,22.81
2022-08-09T07:53:05.881Z,22.83
2022-08-09T07:54:08.640Z,22.93
2022-08-09T07:55:09.994Z,22.90
2022-08-09T07:56:06.536Z,22.87
2022-08-09T07:57:05.831Z,22.87
2022-08-09T07:58:05.869Z,22.99
2022-08-09T07:59:12.583Z,23.13
2022-08-09T08:00:08.899Z,23.23
2022-08-09T08:01:11.296Z,23.08
2022-08-09T08:02:05.869Z,23.06
2022-08-09T08:03:08.400Z,23.17
2022-08-09T08:04:10.508Z,23.31
2022-08-09T08:05:17.489Z,23.34
2022-08-09T08:06:05.754Z,23.31
2022-08-09T08:07:15.508Z,23.34
2022-08-09T08:09:03.602Z,23.37
2022-08-09T08:09:34.294Z,23.50
2022-08-09T08:10:08.617Z,23.59
2022-08-09T08:12:09.641Z,23.71
2022-08-09T08:12:28.488Z,23.87
2022-08-09T08:13:05.698Z,23.96
2022-08-09T08:14:06.465Z,23.99
2022-08-09T08:15:05.659Z,24.06
2022-08-09T08:16:05.640Z,23.93
2022-08-09T08:17:07.701Z,23.98
2022-08-09T08:18:05.625Z,24.05
2022-08-09T08:19:05.622Z,24.16
2022-08-09T08:20:05.590Z,24.13
2022-08-09T08:21:05.640Z,24.02
2022-08-09T08:22:05.587Z,23.66
2022-08-09T08:23:16.110Z,23.66
2022-08-09T08:24:11.930Z,23.58
2022-08-09T08:25:05.550Z,23.59
2022-08-09T08:26:08.157Z,23.65
2022-08-09T08:27:05.593Z,23.69
2022-08-09T08:28:05.522Z,23.84
2022-08-09T08:29:05.518Z,23.78
2022-08-09T08:30:05.493Z,23.73
2022-08-09T08:31:14.405Z,23.86
2022-08-09T08:32:06.150Z,23.88
2022-08-09T08:33:05.479Z,24.03
2022-08-09T08:34:05.476Z,24.17
2022-08-09T08:35:05.461Z,24.14
2022-08-09T08:36:05.443Z,24.14
2022-08-09T08:37:05.516Z,24.18
2022-08-09T08:38:11.407Z,24.18
2022-08-09T08:39:05.511Z,24.32
2022-08-09T08:40:05.512Z,24.48
2022-08-09T08:41:05.610Z,24.61
2022-08-09T08:42:05.374Z,24.50
2022-08-09T08:43:08.947Z,24.63
2022-08-09T08:44:05.569Z,24.57
2022-08-09T08:45:13.288Z,24.73
2022-08-09T08:46:32.179Z,24.88
2022-08-09T08:47:12.875Z,24.99
2022-08-09T08:48:05.419Z,25.01
2022-08-09T08:49:05.311Z,24.86
2022-08-09T08:50:05.305Z,24.69
2022-08-09T08:51:05.282Z,24.33
2022-08-09T08:52:10.367Z,24.28
2022-08-09T08:53:05.822Z,24.26
2022-08-09T08:54:05.263Z,24.36
2022-08-09T08:55:05.587Z,24.36
2022-08-09T08:56:05.253Z,24.36
2022-08-09T08:57:05.661Z,24.48
2022-08-09T08:58:05.221Z,24.48
2022-08-09T08:59:07.928Z,24.29
2022-08-09T09:00:12.857Z,24.30
2022-08-09T09:01:08.974Z,24.28
2022-08-09T09:02:05.273Z,24.39
2022-08-09T09:03:11.769Z,24.47
2022-08-09T09:04:05.173Z,24.26
2022-08-09T09:05:09.954Z,24.13
2022-08-09T09:06:05.640Z,23.99
2022-08-09T09:07:05.668Z,24.03
2022-08-09T09:08:05.110Z,24.13
2022-08-09T09:09:06.727Z,24.18
2022-08-09T09:10:08.877Z,24.29
2022-08-09T09:11:05.702Z,24.05
2022-08-09T09:12:08.916Z,24.10
2022-08-09T09:13:09.156Z,24.08
2022-08-09T09:14:05.071Z,24.06
2022-08-09T09:15:05.882Z,24.06
2022-08-09T09:16:05.044Z,23.93
2022-08-09T09:17:05.958Z,23.98
2022-08-09T09:18:05.022Z,24.11
2022-08-09T09:20:05.013Z,24.42
2022-08-09T09:21:04.985Z,24.63
2022-08-09T09:22:07.667Z,24.77
2022-08-09T09:23:05.173Z,24.76
2022-08-09T09:24:10.262Z,24.76
2022-08-09T09:26:01.442Z,24.69
2022-08-09T09:26:11.739Z,24.68
2022-08-09T09:27:04.910Z,24.70
2022-08-09T09:28:07.991Z,24.80
2022-08-09T09:29:11.120Z,24.86
2022-08-09T09:30:14.203Z,24.91
2022-08-09T09:31:04.882Z,24.88
2022-08-09T09:32:14.857Z,24.78
2022-08-09T09:33:16.668Z,24.78
2022-08-09T09:34:04.879Z,24.65
2022-08-09T09:35:09.143Z,24.55
2022-08-09T09:36:19.719Z,24.50
2022-08-09T09:37:04.828Z,24.53
2022-08-09T09:38:04.813Z,24.61
2022-08-09T09:39:05.951Z,24.50
2022-08-09T09:40:04.912Z,24.42
2022-08-09T09:41:04.804Z,24.53
2022-08-09T09:42:07.710Z,24.65
2022-08-09T09:43:04.753Z,24.63
2022-08-09T09:44:11.144Z,24.69
2022-08-09T09:45:04.751Z,24.78
2022-08-09T09:47:04.717Z,24.45
2022-08-09T09:48:04.957Z,24.42
2022-08-09T09:49:04.716Z,24.42
2022-08-09T09:50:14.097Z,24.50
2022-08-09T09:51:04.678Z,24.58
2022-08-09T09:52:04.683Z,24.66
2022-08-09T09:53:09.112Z,24.57
2022-08-09T09:54:09.379Z,24.54
2022-08-09T09:55:16.641Z,24.50
2022-08-09T09:56:05.426Z,24.61
2022-08-09T09:58:02.866Z,24.73
2022-08-09T09:58:15.951Z,24.78
2022-08-09T09:59:04.595Z,24.88
2022-08-09T10:00:04.587Z,24.96
2022-08-09T10:01:04.585Z,25.10
2022-08-09T10:02:04.570Z,25.25
2022-08-09T10:03:11.889Z,25.47
2022-08-09T10:04:09.467Z,25.47
2022-08-09T10:05:06.493Z,25.33
2022-08-09T10:06:05.071Z,25.38
2022-08-09T10:07:09.947Z,25.44
2022-08-09T10:08:25.846Z,25.44
2022-08-09T10:09:21.717Z,25.46
2022-08-09T10:10:04.504Z,25.53
2022-08-09T10:11:53.997Z,25.55
2022-08-09T10:12:28.330Z,25.54
2022-08-09T10:13:04.457Z,25.59
2022-08-09T10:14:04.450Z,25.63
2022-08-09T10:15:04.437Z,25.59
2022-08-09T10:16:55.768Z,25.59
2022-08-09T10:17:24.352Z,25.55
2022-08-09T10:18:04.419Z,25.50
2022-08-09T10:19:04.403Z,25.58
2022-08-09T10:20:04.398Z,25.77
2022-08-09T10:21:04.374Z,25.87
2022-08-09T10:22:04.361Z,25.91
2022-08-09T10:23:04.344Z,25.98
2022-08-09T10:24:04.344Z,25.91
2022-08-09T10:25:11.763Z,25.93
2022-08-09T10:26:07.147Z,26.05
2022-08-09T10:27:10.077Z,26.16
2022-08-09T10:28:04.348Z,26.26
2022-08-09T10:29:35.973Z,26.31
2022-08-09T10:33:04.277Z,26.03
2022-08-09T10:34:11.107Z,25.99
2022-08-09T10:35:04.242Z,26.02
2022-08-09T10:36:04.464Z,25.90
2022-08-09T10:37:04.201Z,25.69
2022-08-09T10:38:04.209Z,25.60
2022-08-09T10:39:05.968Z,25.58
2022-08-09T10:40:04.280Z,25.53
2022-08-09T10:41:04.282Z,25.54
2022-08-09T10:42:04.166Z,25.55
2022-08-09T10:43:04.148Z,25.66
2022-08-09T10:44:04.136Z,25.81
2022-08-09T10:45:04.236Z,25.84
2022-08-09T10:46:04.131Z,25.85
2022-08-09T10:47:41.671Z,25.88
2022-08-09T10:48:31.282Z,25.96
2022-08-09T10:49:04.170Z,25.96
2022-08-09T10:50:04.108Z,25.81
2022-08-09T10:51:04.070Z,25.77
2022-08-09T10:52:04.086Z,25.73
2022-08-09T10:53:04.044Z,25.78
2022-08-09T10:54:05.044Z,25.91
2022-08-09T10:55:04.020Z,26.02
2022-08-09T10:56:04.026Z,26.13
2022-08-09T10:57:04.011Z,26.03
2022-08-09T10:58:04.006Z,25.87
2022-08-09T10:59:04.023Z,25.90
2022-08-09T11:00:03.987Z,25.95
2022-08-09T11:03:02.261Z,26.00
2022-08-09T11:03:46.991Z,25.99
2022-08-09T11:04:03.617Z,26.03
2022-08-09T11:04:32.089Z,26.13
2022-08-09T11:05:31.081Z,26.10
2022-08-09T11:06:29.752Z,26.19
2022-08-09T11:07:55.017Z,26.22
2022-08-09T11:08:30.088Z,26.28
2022-08-09T11:09:32.570Z,26.19
2022-08-09T11:10:29.677Z,26.10
2022-08-09T11:11:29.654Z,26.02
2022-08-09T11:12:30.228Z,26.06
2022-08-09T11:13:50.402Z,26.18
2022-08-09T11:14:32.005Z,26.03
2022-08-09T11:15:31.647Z,26.03
2022-08-09T11:16:34.915Z,26.15
2022-08-09T11:17:31.165Z,26.23
2022-08-09T11:18:29.593Z,26.33
2022-08-09T11:20:10.126Z,26.47
2022-08-09T11:20:29.598Z,26.59
2022-08-09T11:21:29.586Z,26.55
2022-08-09T11:22:29.556Z,26.53
2022-08-09T11:23:30.160Z,26.62
2022-08-09T11:24:29.522Z,26.74
2022-08-09T11:25:36.221Z,26.77
2022-08-09T11:26:29.516Z,26.77
2022-08-09T11:28:02.819Z,26.89
2022-08-09T11:28:30.627Z,26.93
2022-08-09T11:30:05.624Z,27.00
2022-08-09T11:30:33.676Z,27.18
2022-08-09T11:31:33.881Z,27.37
2022-08-09T11:32:29.454Z,27.35
2022-08-09T11:33:29.430Z,27.26
2022-08-09T11:34:29.439Z,27.18
2022-08-09T11:35:35.238Z,27.14
2022-08-09T11:36:35.416Z,27.21
2022-08-09T11:37:31.329Z,27.15
2022-08-09T11:38:32.880Z,26.92
2022-08-09T11:39:33.570Z,26.73
2022-08-09T11:40:29.623Z,26.71
2022-08-09T11:41:38.211Z,26.66
2022-08-09T11:42:30.357Z,26.71
2022-08-09T11:43:32.368Z,26.71
2022-08-09T11:44:29.346Z,26.78
2022-08-09T11:45:42.496Z,26.93
2022-08-09T11:46:33.497Z,26.96
2022-08-09T11:47:29.286Z,26.78
2022-08-09T11:48:29.303Z,26.85
2022-08-09T11:49:42.734Z,26.83
2022-08-09T11:52:06.717Z,26.62
2022-08-09T11:53:59.066Z,26.65
2022-08-09T11:54:13.776Z,26.81
2022-08-09T11:54:28.542Z,26.85
2022-08-09T11:55:18.236Z,26.99
2022-08-09T11:56:19.320Z,27.15
2022-08-09T11:57:18.212Z,27.33
2022-08-09T11:58:18.186Z,27.14
2022-08-09T11:59:18.187Z,27.12
2022-08-09T12:00:24.585Z,27.25
2022-08-09T12:02:01.004Z,27.44
2022-08-09T12:02:51.110Z,27.55
2022-08-09T12:03:56.221Z,27.71
2022-08-09T12:04:20.962Z,27.65
2022-08-09T12:05:22.722Z,27.58
2022-08-09T12:06:18.110Z,27.47
2022-08-09T12:07:18.144Z,27.30
2022-08-09T12:08:21.800Z,27.18
2022-08-09T12:09:20.843Z,27.21
2022-08-09T12:10:39.695Z,27.29
2022-08-09T12:11:18.075Z,27.37
2022-08-09T12:12:20.035Z,27.39
2022-08-09T12:14:07.017Z,27.36
2022-08-09T12:14:28.828Z,27.33
2022-08-09T12:15:18.027Z,27.40
2022-08-09T12:16:30.469Z,27.49
2022-08-09T12:17:34.675Z,27.54
2022-08-09T12:18:17.984Z,27.64
2022-08-09T12:19:17.989Z,27.67
2022-08-09T12:20:21.517Z,27.67
2022-08-09T12:21:28.342Z,27.59
2022-08-09T12:22:17.949Z,27.59
2022-08-09T12:23:17.951Z,27.36
2022-08-09T12:24:17.973Z,27.33
2022-08-09T12:25:17.918Z,27.21
2022-08-09T12:26:19.750Z,27.22
2022-08-09T12:29:10.357Z,27.32
2022-08-09T12:29:33.674Z,27.26
2022-08-09T12:29:54.649Z,27.21
2022-08-09T12:30:36.785Z,27.15
2022-08-09T12:31:58.277Z,27.14
2022-08-09T12:32:30.021Z,27.12
2022-08-09T12:33:51.399Z,27.25
2022-08-09T12:34:30.003Z,27.39
2022-08-09T12:35:32.599Z,27.40
2022-08-09T12:36:31.665Z,27.54
2022-08-09T12:37:29.974Z,27.55
2022-08-09T12:38:37.999Z,27.60
2022-08-09T12:39:30.047Z,27.68
2022-08-09T12:40:29.946Z,27.70
2022-08-09T12:41:32.671Z,27.71
2022-08-09T12:42:30.145Z,27.59
2022-08-09T12:44:05.980Z,27.42
2022-08-09T12:44:37.404Z,27.32
2022-08-09T12:45:34.057Z,27.22
2022-08-09T12:46:29.895Z,27.25
2022-08-09T12:47:32.705Z,27.27
2022-08-09T12:48:37.358Z,27.21
2022-08-09T12:49:29.878Z,27.29
2022-08-09T12:50:29.849Z,27.33
2022-08-09T12:51:52.158Z,27.44
2022-08-09T12:52:29.903Z,27.37
2022-08-09T12:53:36.968Z,27.27
2022-08-09T12:54:31.144Z,27.15
2022-08-09T12:56:14.375Z,27.05
2022-08-09T12:56:39.670Z,27.10
2022-08-09T12:57:29.790Z,27.10
2022-08-09T12:58:29.778Z,27.03
2022-08-09T12:59:57.712Z,27.03
2022-08-09T13:00:29.741Z,27.07